sensor_id;sensor_type;location;lat;lon;timestamp;pressure;altitude;pressure_sealevel;temperature;humidity
76519;BME280;67029;51.054;13.798;2023-12-20T00:02:14;99958.41;;;9.98;63.23
76519;BME280;67029;51.054;13.798;2023-12-20T00:04:44;99957.84;;;10.06;62.82
76519;BME280;67029;51.054;13.798;2023-12-20T00:07:14;99957.24;;;9.93;63.09
76519;BME280;67029;51.054;13.798;2023-12-20T00:09:44;99952.09;;;9.88;63.23
76519;BME280;67029;51.054;13.798;2023-12-20T00:12:14;99957.33;;;9.98;63.06
76519;BME280;67029;51.054;13.798;2023-12-20T00:14:44;99946.98;;;10.00;62.81
76519;BME280;67029;51.054;13.798;2023-12-20T00:17:14;99950.49;;;9.93;62.79
76519;BME280;67029;51.054;13.798;2023-12-20T00:19:44;99938.55;;;9.79;63.07
76519;BME280;67029;51.054;13.798;2023-12-20T00:22:14;99939.88;;;9.85;62.83
76519;BME280;67029;51.054;13.798;2023-12-20T00:24:44;99936.02;;;9.95;62.48
76519;BME280;67029;51.054;13.798;2023-12-20T00:27:17;99935.88;;;9.98;62.33
76519;BME280;67029;51.054;13.798;2023-12-20T00:29:45;99936.80;;;10.03;62.35
76519;BME280;67029;51.054;13.798;2023-12-20T00:32:14;99932.39;;;10.09;62.04
76519;BME280;67029;51.054;13.798;2023-12-20T00:34:45;99933.26;;;10.17;61.90
76519;BME280;67029;51.054;13.798;2023-12-20T00:37:15;99941.68;;;10.08;61.67
76519;BME280;67029;51.054;13.798;2023-12-20T00:39:45;99933.38;;;9.97;61.89
76519;BME280;67029;51.054;13.798;2023-12-20T00:42:15;99943.88;;;9.99;61.84
76519;BME280;67029;51.054;13.798;2023-12-20T00:44:45;99939.66;;;9.94;61.92
76519;BME280;67029;51.054;13.798;2023-12-20T00:47:15;99939.75;;;9.83;61.94
76519;BME280;67029;51.054;13.798;2023-12-20T00:49:45;99930.77;;;9.76;62.18
76519;BME280;67029;51.054;13.798;2023-12-20T00:52:15;99928.83;;;9.80;62.06
76519;BME280;67029;51.054;13.798;2023-12-20T00:54:45;99926.94;;;9.83;61.89
76519;BME280;67029;51.054;13.798;2023-12-20T00:57:15;99920.83;;;9.85;61.81
76519;BME280;67029;51.054;13.798;2023-12-20T00:59:45;99922.20;;;9.83;61.66
76519;BME280;67029;51.054;13.798;2023-12-20T01:02:15;99916.79;;;9.80;61.79
76519;BME280;67029;51.054;13.798;2023-12-20T01:04:45;99917.55;;;9.74;62.01
76519;BME280;67029;51.054;13.798;2023-12-20T01:07:15;99914.55;;;9.77;61.90
76519;BME280;67029;51.054;13.798;2023-12-20T01:09:45;99912.30;;;9.81;61.62
76519;BME280;67029;51.054;13.798;2023-12-20T01:12:15;99906.98;;;9.79;61.49
76519;BME280;67029;51.054;13.798;2023-12-20T01:14:45;99900.73;;;9.71;61.61
76519;BME280;67029;51.054;13.798;2023-12-20T01:17:15;99899.20;;;9.66;61.72
76519;BME280;67029;51.054;13.798;2023-12-20T01:19:45;99896.07;;;9.56;61.71
76519;BME280;67029;51.054;13.798;2023-12-20T01:22:16;99890.83;;;9.52;62.05
76519;BME280;67029;51.054;13.798;2023-12-20T01:24:46;99886.88;;;9.51;62.12
76519;BME280;67029;51.054;13.798;2023-12-20T01:27:16;99888.89;;;9.56;62.20
76519;BME280;67029;51.054;13.798;2023-12-20T01:29:46;99890.14;;;9.52;61.88
76519;BME280;67029;51.054;13.798;2023-12-20T01:32:16;99884.52;;;9.53;61.86
76519;BME280;67029;51.054;13.798;2023-12-20T01:34:46;99885.70;;;9.57;61.81
76519;BME280;67029;51.054;13.798;2023-12-20T01:37:16;99883.95;;;9.55;61.63
76519;BME280;67029;51.054;13.798;2023-12-20T01:39:46;99879.88;;;9.47;61.76
76519;BME280;67029;51.054;13.798;2023-12-20T01:42:16;99879.52;;;9.43;61.81
76519;BME280;67029;51.054;13.798;2023-12-20T01:44:47;99880.72;;;9.41;61.86
76519;BME280;67029;51.054;13.798;2023-12-20T01:47:17;99880.14;;;9.40;61.80
76519;BME280;67029;51.054;13.798;2023-12-20T01:49:47;99878.65;;;9.45;61.73
76519;BME280;67029;51.054;13.798;2023-12-20T01:52:17;99872.02;;;9.37;62.08
76519;BME280;67029;51.054;13.798;2023-12-20T01:54:47;99873.41;;;9.44;61.69
76519;BME280;67029;51.054;13.798;2023-12-20T01:57:18;99879.34;;;9.49;61.72
76519;BME280;67029;51.054;13.798;2023-12-20T01:59:48;99875.27;;;9.49;61.63
76519;BME280;67029;51.054;13.798;2023-12-20T02:02:18;99878.51;;;9.48;61.69
76519;BME280;67029;51.054;13.798;2023-12-20T02:04:48;99880.48;;;9.36;61.69
76519;BME280;67029;51.054;13.798;2023-12-20T02:07:18;99873.70;;;9.38;61.80
76519;BME280;67029;51.054;13.798;2023-12-20T02:09:48;99872.43;;;9.38;61.69
76519;BME280;67029;51.054;13.798;2023-12-20T02:12:19;99863.12;;;9.33;61.74
76519;BME280;67029;51.054;13.798;2023-12-20T02:14:49;99864.46;;;9.36;61.80
76519;BME280;67029;51.054;13.798;2023-12-20T02:17:20;99865.11;;;9.32;61.82
76519;BME280;67029;51.054;13.798;2023-12-20T02:19:50;99858.80;;;9.35;61.80
76519;BME280;67029;51.054;13.798;2023-12-20T02:22:20;99860.22;;;9.38;61.74
76519;BME280;67029;51.054;13.798;2023-12-20T02:24:50;99858.94;;;9.47;61.55
76519;BME280;67029;51.054;13.798;2023-12-20T02:27:20;99858.55;;;9.51;61.25
76519;BME280;67029;51.054;13.798;2023-12-20T02:29:50;99861.25;;;9.51;61.08
76519;BME280;67029;51.054;13.798;2023-12-20T02:32:31;99853.42;;;9.50;61.03
76519;BME280;67029;51.054;13.798;2023-12-20T02:34:51;99852.95;;;9.48;61.08
76519;BME280;67029;51.054;13.798;2023-12-20T02:37:26;99852.30;;;9.46;61.14
76519;BME280;67029;51.054;13.798;2023-12-20T02:39:52;99853.46;;;9.43;61.12
76519;BME280;67029;51.054;13.798;2023-12-20T02:42:22;99843.03;;;9.41;61.14
76519;BME280;67029;51.054;13.798;2023-12-20T02:44:52;99843.80;;;9.39;61.17
76519;BME280;67029;51.054;13.798;2023-12-20T02:47:22;99838.88;;;9.31;61.16
76519;BME280;67029;51.054;13.798;2023-12-20T02:49:52;99835.80;;;9.35;61.26
76519;BME280;67029;51.054;13.798;2023-12-20T02:52:28;99840.73;;;9.43;61.21
76519;BME280;67029;51.054;13.798;2023-12-20T02:54:52;99839.44;;;9.48;60.93
76519;BME280;67029;51.054;13.798;2023-12-20T02:57:22;99834.42;;;9.42;60.86
76519;BME280;67029;51.054;13.798;2023-12-20T02:59:52;99835.28;;;9.35;61.03
76519;BME280;67029;51.054;13.798;2023-12-20T03:02:22;99841.66;;;9.31;61.06
76519;BME280;67029;51.054;13.798;2023-12-20T03:04:52;99836.39;;;9.19;61.45
76519;BME280;67029;51.054;13.798;2023-12-20T03:07:22;99836.88;;;9.05;61.70
76519;BME280;67029;51.054;13.798;2023-12-20T03:09:53;99833.13;;;9.06;61.80
76519;BME280;67029;51.054;13.798;2023-12-20T03:12:23;99830.86;;;8.95;62.02
76519;BME280;67029;51.054;13.798;2023-12-20T03:14:53;99832.45;;;9.00;61.88
76519;BME280;67029;51.054;13.798;2023-12-20T03:17:23;99828.64;;;9.03;61.96
76519;BME280;67029;51.054;13.798;2023-12-20T03:19:53;99821.70;;;9.09;62.02
76519;BME280;67029;51.054;13.798;2023-12-20T03:22:25;99831.95;;;9.00;61.93
76519;BME280;67029;51.054;13.798;2023-12-20T03:24:53;99834.76;;;9.04;62.14
76519;BME280;67029;51.054;13.798;2023-12-20T03:27:23;99834.09;;;9.08;61.92
76519;BME280;67029;51.054;13.798;2023-12-20T03:29:53;99817.90;;;9.10;62.16
76519;BME280;67029;51.054;13.798;2023-12-20T03:32:23;99810.92;;;9.08;61.91
76519;BME280;67029;51.054;13.798;2023-12-20T03:34:53;99810.91;;;9.04;62.10
76519;BME280;67029;51.054;13.798;2023-12-20T03:37:23;99811.09;;;8.93;62.53
76519;BME280;67029;51.054;13.798;2023-12-20T03:39:53;99804.69;;;8.93;62.36
76519;BME280;67029;51.054;13.798;2023-12-20T03:42:23;99805.11;;;8.98;62.27
76519;BME280;67029;51.054;13.798;2023-12-20T03:44:53;99807.04;;;8.98;62.25
76519;BME280;67029;51.054;13.798;2023-12-20T03:47:29;99805.36;;;8.98;62.33
76519;BME280;67029;51.054;13.798;2023-12-20T03:49:54;99805.69;;;8.99;62.12
76519;BME280;67029;51.054;13.798;2023-12-20T03:52:24;99809.11;;;9.01;62.42
76519;BME280;67029;51.054;13.798;2023-12-20T03:54:54;99811.64;;;9.10;62.32
76519;BME280;67029;51.054;13.798;2023-12-20T03:57:24;99805.03;;;8.97;62.43
76519;BME280;67029;51.054;13.798;2023-12-20T03:59:54;99809.70;;;8.95;62.49
76519;BME280;67029;51.054;13.798;2023-12-20T04:02:24;99807.18;;;9.01;62.33
76519;BME280;67029;51.054;13.798;2023-12-20T04:04:55;99806.09;;;9.05;62.35
76519;BME280;67029;51.054;13.798;2023-12-20T04:07:24;99809.89;;;8.98;62.46
76519;BME280;67029;51.054;13.798;2023-12-20T04:09:55;99809.03;;;9.01;62.40
76519;BME280;67029;51.054;13.798;2023-12-20T04:12:25;99805.53;;;9.02;62.49
76519;BME280;67029;51.054;13.798;2023-12-20T04:14:55;99805.26;;;9.05;62.48
76519;BME280;67029;51.054;13.798;2023-12-20T04:17:25;99808.12;;;9.10;62.39
76519;BME280;67029;51.054;13.798;2023-12-20T04:19:55;99809.88;;;9.16;62.41
76519;BME280;67029;51.054;13.798;2023-12-20T04:22:25;99809.70;;;9.21;62.31
76519;BME280;67029;51.054;13.798;2023-12-20T04:25:00;99808.27;;;9.21;62.35
76519;BME280;67029;51.054;13.798;2023-12-20T04:27:26;99806.49;;;9.18;62.29
76519;BME280;67029;51.054;13.798;2023-12-20T04:29:56;99810.34;;;9.13;62.33
76519;BME280;67029;51.054;13.798;2023-12-20T04:32:26;99813.31;;;9.18;62.40
76519;BME280;67029;51.054;13.798;2023-12-20T04:34:57;99812.58;;;9.25;62.41
76519;BME280;67029;51.054;13.798;2023-12-20T04:37:27;99810.30;;;9.28;62.22
76519;BME280;67029;51.054;13.798;2023-12-20T04:39:57;99806.46;;;9.29;62.00
76519;BME280;67029;51.054;13.798;2023-12-20T04:42:27;99807.23;;;9.24;62.17
76519;BME280;67029;51.054;13.798;2023-12-20T04:44:57;99800.12;;;9.26;62.49
76519;BME280;67029;51.054;13.798;2023-12-20T04:47:27;99806.53;;;9.19;62.62
76519;BME280;67029;51.054;13.798;2023-12-20T04:49:57;99806.88;;;9.15;62.72
76519;BME280;67029;51.054;13.798;2023-12-20T04:52:27;99806.08;;;9.27;62.69
76519;BME280;67029;51.054;13.798;2023-12-20T04:54:57;99818.99;;;9.36;62.13
76519;BME280;67029;51.054;13.798;2023-12-20T04:57:27;99820.64;;;9.27;62.31
76519;BME280;67029;51.054;13.798;2023-12-20T04:59:57;99823.00;;;9.28;62.60
76519;BME280;67029;51.054;13.798;2023-12-20T05:02:27;99824.34;;;9.33;62.56
76519;BME280;67029;51.054;13.798;2023-12-20T05:04:59;99821.88;;;9.35;62.78
76519;BME280;67029;51.054;13.798;2023-12-20T05:07:28;99817.68;;;9.40;62.62
76519;BME280;67029;51.054;13.798;2023-12-20T05:09:58;99811.80;;;9.43;62.35
76519;BME280;67029;51.054;13.798;2023-12-20T05:12:28;99816.52;;;9.38;62.52
76519;BME280;67029;51.054;13.798;2023-12-20T05:14:58;99822.83;;;9.44;62.76
76519;BME280;67029;51.054;13.798;2023-12-20T05:17:28;99816.75;;;9.45;62.48
76519;BME280;67029;51.054;13.798;2023-12-20T05:19:58;99813.14;;;9.34;62.57
76519;BME280;67029;51.054;13.798;2023-12-20T05:22:28;99815.92;;;9.24;62.72
76519;BME280;67029;51.054;13.798;2023-12-20T05:24:58;99819.31;;;9.21;62.95
76519;BME280;67029;51.054;13.798;2023-12-20T05:27:28;99828.86;;;9.25;62.93
76519;BME280;67029;51.054;13.798;2023-12-20T05:29:58;99833.24;;;9.25;62.93
76519;BME280;67029;51.054;13.798;2023-12-20T05:32:28;99831.89;;;9.26;63.11
76519;BME280;67029;51.054;13.798;2023-12-20T05:34:58;99832.39;;;9.15;63.41
76519;BME280;67029;51.054;13.798;2023-12-20T05:37:28;99831.32;;;9.14;63.74
76519;BME280;67029;51.054;13.798;2023-12-20T05:39:58;99834.45;;;9.08;63.78
76519;BME280;67029;51.054;13.798;2023-12-20T05:42:28;99820.26;;;9.10;64.08
76519;BME280;67029;51.054;13.798;2023-12-20T05:44:59;99837.01;;;9.01;63.95
76519;BME280;67029;51.054;13.798;2023-12-20T05:47:29;99839.06;;;8.99;63.89
76519;BME280;67029;51.054;13.798;2023-12-20T05:49:59;99841.56;;;9.00;64.12
76519;BME280;67029;51.054;13.798;2023-12-20T05:52:29;99847.06;;;9.04;63.71
76519;BME280;67029;51.054;13.798;2023-12-20T05:54:59;99842.97;;;9.07;63.68
76519;BME280;67029;51.054;13.798;2023-12-20T05:57:29;99847.22;;;9.10;63.76
76519;BME280;67029;51.054;13.798;2023-12-20T05:59:59;99849.70;;;9.03;63.99
76519;BME280;67029;51.054;13.798;2023-12-20T06:02:29;99853.92;;;9.13;64.12
76519;BME280;67029;51.054;13.798;2023-12-20T06:05:05;99853.74;;;9.15;63.72
76519;BME280;67029;51.054;13.798;2023-12-20T06:07:29;99859.44;;;9.21;63.53
76519;BME280;67029;51.054;13.798;2023-12-20T06:10:07;99865.09;;;9.21;63.54
76519;BME280;67029;51.054;13.798;2023-12-20T06:12:30;99863.56;;;9.22;63.61
76519;BME280;67029;51.054;13.798;2023-12-20T06:15:00;99854.33;;;9.20;63.68
76519;BME280;67029;51.054;13.798;2023-12-20T06:17:30;99850.67;;;9.21;63.58
76519;BME280;67029;51.054;13.798;2023-12-20T06:20:00;99854.67;;;9.09;64.08
76519;BME280;67029;51.054;13.798;2023-12-20T06:22:30;99856.64;;;9.23;63.99
76519;BME280;67029;51.054;13.798;2023-12-20T06:25:00;99857.70;;;9.26;63.58
76519;BME280;67029;51.054;13.798;2023-12-20T06:27:30;99853.84;;;9.23;63.73
76519;BME280;67029;51.054;13.798;2023-12-20T06:30:00;99858.20;;;9.25;63.72
76519;BME280;67029;51.054;13.798;2023-12-20T06:32:30;99856.27;;;9.26;63.75
76519;BME280;67029;51.054;13.798;2023-12-20T06:35:00;99863.66;;;9.28;63.52
76519;BME280;67029;51.054;13.798;2023-12-20T06:37:30;99869.84;;;9.30;63.62
76519;BME280;67029;51.054;13.798;2023-12-20T06:40:00;99874.92;;;9.36;63.44
76519;BME280;67029;51.054;13.798;2023-12-20T06:42:31;99879.84;;;9.42;63.19
76519;BME280;67029;51.054;13.798;2023-12-20T06:45:01;99881.49;;;9.36;63.40
76519;BME280;67029;51.054;13.798;2023-12-20T06:47:31;99884.66;;;9.28;63.95
76519;BME280;67029;51.054;13.798;2023-12-20T06:50:01;99894.91;;;9.17;64.15
76519;BME280;67029;51.054;13.798;2023-12-20T06:52:31;99903.25;;;9.18;64.46
76519;BME280;67029;51.054;13.798;2023-12-20T06:55:01;99906.00;;;9.08;64.63
76519;BME280;67029;51.054;13.798;2023-12-20T06:57:31;99898.94;;;9.14;64.79
76519;BME280;67029;51.054;13.798;2023-12-20T07:00:02;99904.89;;;9.27;64.43
76519;BME280;67029;51.054;13.798;2023-12-20T07:02:32;99907.17;;;9.32;64.39
76519;BME280;67029;51.054;13.798;2023-12-20T07:05:03;99907.11;;;9.41;64.49
76519;BME280;67029;51.054;13.798;2023-12-20T07:07:33;99908.73;;;9.51;64.14
76519;BME280;67029;51.054;13.798;2023-12-20T07:10:03;99906.58;;;9.49;63.79
76519;BME280;67029;51.054;13.798;2023-12-20T07:12:33;99913.12;;;9.40;63.86
76519;BME280;67029;51.054;13.798;2023-12-20T07:15:04;99910.50;;;9.30;64.19
76519;BME280;67029;51.054;13.798;2023-12-20T07:17:34;99912.38;;;9.27;64.25
76519;BME280;67029;51.054;13.798;2023-12-20T07:20:05;99906.98;;;9.33;64.24
76519;BME280;67029;51.054;13.798;2023-12-20T07:22:34;99906.28;;;9.35;64.04
76519;BME280;67029;51.054;13.798;2023-12-20T07:25:05;99914.53;;;9.41;63.88
76519;BME280;67029;51.054;13.798;2023-12-20T07:27:35;99921.11;;;9.36;63.95
76519;BME280;67029;51.054;13.798;2023-12-20T07:30:05;99926.20;;;9.28;63.99
76519;BME280;67029;51.054;13.798;2023-12-20T07:32:35;99921.78;;;9.29;64.08
76519;BME280;67029;51.054;13.798;2023-12-20T07:35:06;99916.67;;;9.28;64.02
76519;BME280;67029;51.054;13.798;2023-12-20T07:37:36;99911.88;;;9.27;63.99
76519;BME280;67029;51.054;13.798;2023-12-20T07:40:07;99915.79;;;9.31;63.87
76519;BME280;67029;51.054;13.798;2023-12-20T07:42:36;99916.13;;;9.18;64.07
76519;BME280;67029;51.054;13.798;2023-12-20T07:45:07;99914.31;;;9.21;64.03
76519;BME280;67029;51.054;13.798;2023-12-20T07:47:37;99914.38;;;9.18;64.11
76519;BME280;67029;51.054;13.798;2023-12-20T07:50:07;99917.72;;;9.20;63.82
76519;BME280;67029;51.054;13.798;2023-12-20T07:52:37;99915.03;;;9.14;64.03
76519;BME280;67029;51.054;13.798;2023-12-20T07:55:07;99911.62;;;9.17;63.89
76519;BME280;67029;51.054;13.798;2023-12-20T07:57:37;99895.70;;;9.10;64.01
76519;BME280;67029;51.054;13.798;2023-12-20T08:00:08;99900.31;;;9.12;63.93
76519;BME280;67029;51.054;13.798;2023-12-20T08:02:38;99903.41;;;9.12;63.85
76519;BME280;67029;51.054;13.798;2023-12-20T08:05:08;99910.11;;;9.15;63.60
76519;BME280;67029;51.054;13.798;2023-12-20T08:07:38;99909.64;;;9.26;63.34
76519;BME280;67029;51.054;13.798;2023-12-20T08:10:09;99922.52;;;9.26;63.30
76519;BME280;67029;51.054;13.798;2023-12-20T08:12:39;99917.41;;;9.30;63.28
76519;BME280;67029;51.054;13.798;2023-12-20T08:15:09;99917.78;;;9.34;63.43
76519;BME280;67029;51.054;13.798;2023-12-20T08:17:39;99923.74;;;9.39;63.32
76519;BME280;67029;51.054;13.798;2023-12-20T08:20:10;99921.44;;;9.68;62.25
76519;BME280;67029;51.054;13.798;2023-12-20T08:22:40;99922.63;;;9.88;61.76
76519;BME280;67029;51.054;13.798;2023-12-20T08:25:10;99928.23;;;10.14;61.17
76519;BME280;67029;51.054;13.798;2023-12-20T08:27:40;99926.05;;;10.27;60.69
76519;BME280;67029;51.054;13.798;2023-12-20T08:30:11;99921.77;;;10.46;60.48
76519;BME280;67029;51.054;13.798;2023-12-20T08:32:41;99920.42;;;10.62;60.14
76519;BME280;67029;51.054;13.798;2023-12-20T08:35:11;99919.53;;;10.65;60.01
76519;BME280;67029;51.054;13.798;2023-12-20T08:37:41;99916.58;;;10.69;59.84
76519;BME280;67029;51.054;13.798;2023-12-20T08:40:11;99915.48;;;10.76;59.72
76519;BME280;67029;51.054;13.798;2023-12-20T08:42:41;99921.52;;;11.07;58.55
76519;BME280;67029;51.054;13.798;2023-12-20T08:45:11;99920.52;;;11.46;58.66
76519;BME280;67029;51.054;13.798;2023-12-20T08:47:41;99922.32;;;11.87;57.08
76519;BME280;67029;51.054;13.798;2023-12-20T08:50:12;99926.09;;;12.26;55.97
76519;BME280;67029;51.054;13.798;2023-12-20T08:52:42;99928.48;;;12.61;56.42
76519;BME280;67029;51.054;13.798;2023-12-20T08:55:12;99934.05;;;12.98;55.49
76519;BME280;67029;51.054;13.798;2023-12-20T08:57:42;99922.95;;;13.17;53.97
76519;BME280;67029;51.054;13.798;2023-12-20T09:00:12;99933.17;;;13.24;52.93
76519;BME280;67029;51.054;13.798;2023-12-20T09:02:43;99933.20;;;13.29;51.42
76519;BME280;67029;51.054;13.798;2023-12-20T09:05:13;99931.26;;;13.18;51.49
76519;BME280;67029;51.054;13.798;2023-12-20T09:07:43;99930.94;;;13.19;49.72
76519;BME280;67029;51.054;13.798;2023-12-20T09:10:13;99920.78;;;13.19;50.31
76519;BME280;67029;51.054;13.798;2023-12-20T09:12:43;99920.38;;;13.21;48.94
76519;BME280;67029;51.054;13.798;2023-12-20T09:15:13;99920.03;;;13.08;49.49
76519;BME280;67029;51.054;13.798;2023-12-20T09:17:43;99917.33;;;13.15;48.08
76519;BME280;67029;51.054;13.798;2023-12-20T09:20:13;99924.96;;;13.24;49.06
76519;BME280;67029;51.054;13.798;2023-12-20T09:22:43;99912.63;;;13.37;47.80
76519;BME280;67029;51.054;13.798;2023-12-20T09:25:13;99923.89;;;13.66;49.26
76519;BME280;67029;51.054;13.798;2023-12-20T09:27:43;99919.05;;;14.20;47.70
76519;BME280;67029;51.054;13.798;2023-12-20T09:30:13;99918.13;;;14.85;46.75
76519;BME280;67029;51.054;13.798;2023-12-20T09:32:43;99914.25;;;15.60;44.21
76519;BME280;67029;51.054;13.798;2023-12-20T09:35:14;99915.80;;;16.12;43.15
76519;BME280;67029;51.054;13.798;2023-12-20T09:37:44;99898.27;;;16.70;41.31
76519;BME280;67029;51.054;13.798;2023-12-20T09:40:14;99909.08;;;17.05;41.53
76519;BME280;67029;51.054;13.798;2023-12-20T09:43:04;99897.91;;;17.12;41.41
76519;BME280;67029;51.054;13.798;2023-12-20T09:45:15;99903.84;;;17.13;39.79
76519;BME280;67029;51.054;13.798;2023-12-20T09:47:45;99900.85;;;17.48;39.16
76519;BME280;67029;51.054;13.798;2023-12-20T09:50:18;99904.91;;;17.67;39.95
76519;BME280;67029;51.054;13.798;2023-12-20T09:52:49;99902.12;;;18.02;38.12
76519;BME280;67029;51.054;13.798;2023-12-20T09:55:20;99901.80;;;18.40;37.49
76519;BME280;67029;51.054;13.798;2023-12-20T09:57:47;99901.95;;;18.68;39.10
76519;BME280;67029;51.054;13.798;2023-12-20T10:00:17;99887.77;;;18.95;37.19
76519;BME280;67029;51.054;13.798;2023-12-20T10:02:59;99898.63;;;19.20;35.50
76519;BME280;67029;51.054;13.798;2023-12-20T10:05:25;99886.69;;;19.34;35.02
76519;BME280;67029;51.054;13.798;2023-12-20T10:07:49;99880.41;;;18.95;35.51
76519;BME280;67029;51.054;13.798;2023-12-20T10:10:19;99888.80;;;18.22;35.92
76519;BME280;67029;51.054;13.798;2023-12-20T10:13:06;99884.64;;;17.71;37.32
76519;BME280;67029;51.054;13.798;2023-12-20T10:15:19;99879.77;;;17.24;37.61
76519;BME280;67029;51.054;13.798;2023-12-20T10:17:50;99881.64;;;17.38;37.79
76519;BME280;67029;51.054;13.798;2023-12-20T10:20:19;99866.91;;;17.38;38.42
76519;BME280;67029;51.054;13.798;2023-12-20T10:22:49;99870.77;;;17.38;38.54
76519;BME280;67029;51.054;13.798;2023-12-20T10:25:20;99865.97;;;17.56;37.71
76519;BME280;67029;51.054;13.798;2023-12-20T10:27:50;99859.92;;;17.84;37.23
76519;BME280;67029;51.054;13.798;2023-12-20T10:30:20;99865.04;;;17.89;36.98
76519;BME280;67029;51.054;13.798;2023-12-20T10:32:50;99849.11;;;17.83;36.47
76519;BME280;67029;51.054;13.798;2023-12-20T10:35:21;99853.73;;;17.88;36.27
76519;BME280;67029;51.054;13.798;2023-12-20T10:37:55;99865.08;;;17.87;36.77
76519;BME280;67029;51.054;13.798;2023-12-20T10:40:21;99853.70;;;18.11;36.57
76519;BME280;67029;51.054;13.798;2023-12-20T10:42:51;99850.09;;;18.49;36.49
76519;BME280;67029;51.054;13.798;2023-12-20T10:45:22;99844.80;;;18.87;36.14
76519;BME280;67029;51.054;13.798;2023-12-20T10:47:52;99832.92;;;18.97;35.25
76519;BME280;67029;51.054;13.798;2023-12-20T10:50:22;99823.91;;;18.52;35.52
76519;BME280;67029;51.054;13.798;2023-12-20T10:52:54;99821.91;;;18.46;35.13
76519;BME280;67029;51.054;13.798;2023-12-20T10:55:23;99814.31;;;18.40;34.71
76519;BME280;67029;51.054;13.798;2023-12-20T10:58:06;99824.95;;;18.39;34.78
76519;BME280;67029;51.054;13.798;2023-12-20T11:00:24;99838.19;;;18.49;35.24
76519;BME280;67029;51.054;13.798;2023-12-20T11:02:55;99813.03;;;18.52;34.62
76519;BME280;67029;51.054;13.798;2023-12-20T11:08:10;99826.86;;;18.31;34.78
76519;BME280;67029;51.054;13.798;2023-12-20T11:10:38;99832.87;;;18.35;35.08
76519;BME280;67029;51.054;13.798;2023-12-20T11:13:01;99824.19;;;18.41;34.78
76519;BME280;67029;51.054;13.798;2023-12-20T11:15:26;99827.58;;;18.41;34.96
76519;BME280;67029;51.054;13.798;2023-12-20T11:17:56;99823.98;;;18.19;34.10
76519;BME280;67029;51.054;13.798;2023-12-20T11:20:40;99816.22;;;17.63;34.96
76519;BME280;67029;51.054;13.798;2023-12-20T11:22:57;99809.94;;;17.41;34.86
76519;BME280;67029;51.054;13.798;2023-12-20T11:25:27;99816.70;;;17.16;36.39
76519;BME280;67029;51.054;13.798;2023-12-20T11:28:08;99813.70;;;16.71;36.13
76519;BME280;67029;51.054;13.798;2023-12-20T11:30:51;99819.20;;;16.24;37.20
76519;BME280;67029;51.054;13.798;2023-12-20T11:32:59;99825.37;;;16.04;37.40
76519;BME280;67029;51.054;13.798;2023-12-20T11:35:29;99821.93;;;15.68;37.60
76519;BME280;67029;51.054;13.798;2023-12-20T11:38:04;99805.77;;;15.13;38.47
76519;BME280;67029;51.054;13.798;2023-12-20T11:40:33;99812.08;;;14.70;39.34
76519;BME280;67029;51.054;13.798;2023-12-20T11:43:00;99802.68;;;14.34;40.31
76519;BME280;67029;51.054;13.798;2023-12-20T11:45:30;99796.66;;;14.13;40.79
76519;BME280;67029;51.054;13.798;2023-12-20T11:48:01;99804.80;;;13.95;41.05
76519;BME280;67029;51.054;13.798;2023-12-20T11:50:31;99800.59;;;13.74;41.38
76519;BME280;67029;51.054;13.798;2023-12-20T11:53:01;99797.53;;;13.43;42.17
76519;BME280;67029;51.054;13.798;2023-12-20T11:55:31;99786.72;;;13.68;42.32
76519;BME280;67029;51.054;13.798;2023-12-20T11:58:02;99775.80;;;13.55;42.47
76519;BME280;67029;51.054;13.798;2023-12-20T12:00:31;99769.41;;;13.87;41.80
76519;BME280;67029;51.054;13.798;2023-12-20T12:03:02;99768.91;;;14.19;41.87
76519;BME280;67029;51.054;13.798;2023-12-20T12:05:32;99756.76;;;14.68;40.81
76519;BME280;67029;51.054;13.798;2023-12-20T12:08:02;99759.16;;;14.81;40.31
76519;BME280;67029;51.054;13.798;2023-12-20T12:10:32;99764.66;;;14.92;39.88
76519;BME280;67029;51.054;13.798;2023-12-20T12:13:03;99748.60;;;15.20;39.25
76519;BME280;67029;51.054;13.798;2023-12-20T12:15:33;99765.91;;;15.56;38.98
76519;BME280;67029;51.054;13.798;2023-12-20T12:18:04;99761.16;;;16.05;38.48
76519;BME280;67029;51.054;13.798;2023-12-20T12:23:06;99746.08;;;16.70;37.53
76519;BME280;67029;51.054;13.798;2023-12-20T12:25:36;99739.17;;;16.87;36.59
76519;BME280;67029;51.054;13.798;2023-12-20T12:28:10;99740.89;;;17.06;36.95
76519;BME280;67029;51.054;13.798;2023-12-20T12:30:37;99731.30;;;17.10;36.42
76519;BME280;67029;51.054;13.798;2023-12-20T12:33:43;99728.41;;;17.52;35.60
76519;BME280;67029;51.054;13.798;2023-12-20T12:35:36;99713.49;;;17.87;34.52
76519;BME280;67029;51.054;13.798;2023-12-20T12:38:07;99706.97;;;18.13;34.57
76519;BME280;67029;51.054;13.798;2023-12-20T12:41:37;99715.16;;;17.90;33.88
76519;BME280;67029;51.054;13.798;2023-12-20T12:44:07;99718.72;;;17.46;34.28
76519;BME280;67029;51.054;13.798;2023-12-20T12:46:37;99718.94;;;17.11;35.55
76519;BME280;67029;51.054;13.798;2023-12-20T12:49:07;99716.16;;;16.81;35.51
76519;BME280;67029;51.054;13.798;2023-12-20T12:51:37;99704.29;;;16.60;35.55
76519;BME280;67029;51.054;13.798;2023-12-20T12:54:07;99700.63;;;16.29;35.88
76519;BME280;67029;51.054;13.798;2023-12-20T12:56:37;99705.77;;;16.27;36.45
76519;BME280;67029;51.054;13.798;2023-12-20T12:59:08;99698.70;;;16.23;36.52
76519;BME280;67029;51.054;13.798;2023-12-20T13:01:38;99703.98;;;16.30;36.57
76519;BME280;67029;51.054;13.798;2023-12-20T13:04:08;99702.39;;;16.34;36.45
76519;BME280;67029;51.054;13.798;2023-12-20T13:06:38;99697.03;;;16.49;36.55
76519;BME280;67029;51.054;13.798;2023-12-20T13:09:08;99705.23;;;16.56;35.92
76519;BME280;67029;51.054;13.798;2023-12-20T13:11:38;99694.00;;;16.25;36.50
76519;BME280;67029;51.054;13.798;2023-12-20T13:14:08;99683.68;;;16.27;36.40
76519;BME280;67029;51.054;13.798;2023-12-20T13:16:38;99668.62;;;16.32;36.53